sensor_id;sensor_type;location;lat;lon;timestamp;P1;durP1;ratioP1;P2;durP2;ratioP2
16892;SDS011;8563;52.242;9.098;2023-12-22T00:02:05;15.57;;;3.57;;
16892;SDS011;8563;52.242;9.098;2023-12-22T00:04:38;11.97;;;2.70;;
16892;SDS011;8563;52.242;9.098;2023-12-22T00:07:11;13.90;;;3.20;;
16892;SDS011;8563;52.242;9.098;2023-12-22T00:09:44;15.33;;;3.77;;
16892;SDS011;8563;52.242;9.098;2023-12-22T00:12:16;17.33;;;3.70;;
16892;SDS011;8563;52.242;9.098;2023-12-22T00:14:49;18.53;;;3.03;;
16892;SDS011;8563;52.242;9.098;2023-12-22T00:17:21;21.03;;;3.73;;
16892;SDS011;8563;52.242;9.098;2023-12-22T00:19:53;14.50;;;3.47;;
16892;SDS011;8563;52.242;9.098;2023-12-22T00:22:30;24.03;;;4.10;;
16892;SDS011;8563;52.242;9.098;2023-12-22T00:25:03;22.27;;;5.20;;
16892;SDS011;8563;52.242;9.098;2023-12-22T00:27:37;25.07;;;4.67;;
16892;SDS011;8563;52.242;9.098;2023-12-22T00:30:10;22.13;;;4.63;;
16892;SDS011;8563;52.242;9.098;2023-12-22T00:32:42;20.20;;;4.50;;
16892;SDS011;8563;52.242;9.098;2023-12-22T00:35:15;19.57;;;4.30;;
16892;SDS011;8563;52.242;9.098;2023-12-22T00:37:48;22.97;;;4.90;;
16892;SDS011;8563;52.242;9.098;2023-12-22T00:40:21;21.67;;;3.80;;
16892;SDS011;8563;52.242;9.098;2023-12-22T00:42:53;17.70;;;3.97;;
16892;SDS011;8563;52.242;9.098;2023-12-22T00:45:26;18.03;;;3.70;;
16892;SDS011;8563;52.242;9.098;2023-12-22T00:47:58;16.07;;;3.83;;
16892;SDS011;8563;52.242;9.098;2023-12-22T00:50:30;13.27;;;2.90;;
16892;SDS011;8563;52.242;9.098;2023-12-22T00:53:05;10.07;;;2.30;;
16892;SDS011;8563;52.242;9.098;2023-12-22T00:55:37;8.43;;;1.83;;
16892;SDS011;8563;52.242;9.098;2023-12-22T00:58:09;8.43;;;1.70;;
16892;SDS011;8563;52.242;9.098;2023-12-22T01:00:42;5.70;;;1.40;;
16892;SDS011;8563;52.242;9.098;2023-12-22T01:03:14;7.63;;;1.80;;
16892;SDS011;8563;52.242;9.098;2023-12-22T01:05:46;6.00;;;2.07;;
16892;SDS011;8563;52.242;9.098;2023-12-22T01:08:20;8.70;;;1.60;;
16892;SDS011;8563;52.242;9.098;2023-12-22T01:10:53;12.60;;;2.30;;
16892;SDS011;8563;52.242;9.098;2023-12-22T01:13:25;7.70;;;2.07;;
16892;SDS011;8563;52.242;9.098;2023-12-22T01:15:57;13.17;;;2.63;;
16892;SDS011;8563;52.242;9.098;2023-12-22T01:18:30;16.30;;;2.80;;
16892;SDS011;8563;52.242;9.098;2023-12-22T01:21:02;12.43;;;3.00;;
16892;SDS011;8563;52.242;9.098;2023-12-22T01:23:36;9.87;;;2.57;;
16892;SDS011;8563;52.242;9.098;2023-12-22T01:26:08;13.23;;;3.30;;
16892;SDS011;8563;52.242;9.098;2023-12-22T01:28:41;10.73;;;2.63;;
16892;SDS011;8563;52.242;9.098;2023-12-22T01:31:13;12.10;;;2.33;;
16892;SDS011;8563;52.242;9.098;2023-12-22T01:33:45;10.67;;;2.00;;
16892;SDS011;8563;52.242;9.098;2023-12-22T01:36:18;11.53;;;2.50;;
16892;SDS011;8563;52.242;9.098;2023-12-22T01:38:52;12.13;;;2.50;;
16892;SDS011;8563;52.242;9.098;2023-12-22T01:41:24;9.53;;;1.83;;
16892;SDS011;8563;52.242;9.098;2023-12-22T01:43:57;11.27;;;2.40;;
16892;SDS011;8563;52.242;9.098;2023-12-22T01:46:29;9.20;;;1.97;;
16892;SDS011;8563;52.242;9.098;2023-12-22T01:49:02;12.00;;;1.90;;
16892;SDS011;8563;52.242;9.098;2023-12-22T01:51:34;13.20;;;2.93;;
16892;SDS011;8563;52.242;9.098;2023-12-22T01:54:11;12.43;;;2.40;;
16892;SDS011;8563;52.242;9.098;2023-12-22T01:56:45;14.07;;;3.00;;
16892;SDS011;8563;52.242;9.098;2023-12-22T01:59:18;17.07;;;3.20;;
16892;SDS011;8563;52.242;9.098;2023-12-22T02:01:50;14.40;;;2.90;;
16892;SDS011;8563;52.242;9.098;2023-12-22T02:04:24;15.70;;;2.97;;
16892;SDS011;8563;52.242;9.098;2023-12-22T02:06:57;11.73;;;2.77;;
16892;SDS011;8563;52.242;9.098;2023-12-22T02:09:32;17.87;;;2.80;;
16892;SDS011;8563;52.242;9.098;2023-12-22T02:12:04;13.40;;;2.87;;
16892;SDS011;8563;52.242;9.098;2023-12-22T02:14:37;11.60;;;2.50;;
16892;SDS011;8563;52.242;9.098;2023-12-22T02:17:11;11.33;;;2.57;;
16892;SDS011;8563;52.242;9.098;2023-12-22T02:19:46;10.37;;;2.37;;
16892;SDS011;8563;52.242;9.098;2023-12-22T02:22:18;11.60;;;2.63;;
16892;SDS011;8563;52.242;9.098;2023-12-22T02:24:52;14.17;;;2.67;;
16892;SDS011;8563;52.242;9.098;2023-12-22T02:27:27;13.57;;;2.90;;
16892;SDS011;8563;52.242;9.098;2023-12-22T02:30:02;10.63;;;2.23;;
16892;SDS011;8563;52.242;9.098;2023-12-22T02:32:36;14.60;;;2.80;;
16892;SDS011;8563;52.242;9.098;2023-12-22T02:35:10;11.83;;;2.30;;
16892;SDS011;8563;52.242;9.098;2023-12-22T02:37:44;10.03;;;2.10;;
16892;SDS011;8563;52.242;9.098;2023-12-22T02:40:18;9.83;;;2.03;;
16892;SDS011;8563;52.242;9.098;2023-12-22T02:42:51;9.33;;;2.13;;
16892;SDS011;8563;52.242;9.098;2023-12-22T02:45:24;11.30;;;2.43;;
16892;SDS011;8563;52.242;9.098;2023-12-22T02:47:56;15.57;;;2.77;;
16892;SDS011;8563;52.242;9.098;2023-12-22T02:50:29;9.77;;;2.03;;
16892;SDS011;8563;52.242;9.098;2023-12-22T02:53:01;8.40;;;2.53;;
16892;SDS011;8563;52.242;9.098;2023-12-22T02:55:35;12.30;;;2.80;;
16892;SDS011;8563;52.242;9.098;2023-12-22T02:58:08;11.67;;;2.33;;
16892;SDS011;8563;52.242;9.098;2023-12-22T03:00:40;13.50;;;2.80;;
16892;SDS011;8563;52.242;9.098;2023-12-22T03:03:13;12.63;;;2.33;;
16892;SDS011;8563;52.242;9.098;2023-12-22T03:05:45;10.40;;;2.40;;
16892;SDS011;8563;52.242;9.098;2023-12-22T03:08:18;9.50;;;2.13;;
16892;SDS011;8563;52.242;9.098;2023-12-22T03:10:51;13.30;;;2.40;;
16892;SDS011;8563;52.242;9.098;2023-12-22T03:13:24;11.50;;;2.37;;
16892;SDS011;8563;52.242;9.098;2023-12-22T03:15:56;12.97;;;2.70;;
16892;SDS011;8563;52.242;9.098;2023-12-22T03:18:28;15.70;;;2.73;;
16892;SDS011;8563;52.242;9.098;2023-12-22T03:21:01;15.03;;;2.23;;
16892;SDS011;8563;52.242;9.098;2023-12-22T03:23:33;15.47;;;2.90;;
16892;SDS011;8563;52.242;9.098;2023-12-22T03:26:07;10.27;;;2.50;;
16892;SDS011;8563;52.242;9.098;2023-12-22T03:28:39;16.80;;;2.57;;
16892;SDS011;8563;52.242;9.098;2023-12-22T03:31:11;11.73;;;2.77;;
16892;SDS011;8563;52.242;9.098;2023-12-22T03:33:44;13.80;;;2.90;;
16892;SDS011;8563;52.242;9.098;2023-12-22T03:36:16;14.07;;;2.63;;
16892;SDS011;8563;52.242;9.098;2023-12-22T03:38:48;15.67;;;3.37;;
16892;SDS011;8563;52.242;9.098;2023-12-22T03:41:22;16.60;;;3.50;;
16892;SDS011;8563;52.242;9.098;2023-12-22T03:43:55;16.80;;;4.00;;
16892;SDS011;8563;52.242;9.098;2023-12-22T03:46:27;13.23;;;2.40;;
16892;SDS011;8563;52.242;9.098;2023-12-22T03:48:59;14.67;;;3.67;;
16892;SDS011;8563;52.242;9.098;2023-12-22T03:51:32;16.87;;;3.00;;
16892;SDS011;8563;52.242;9.098;2023-12-22T03:54:04;16.93;;;2.97;;
16892;SDS011;8563;52.242;9.098;2023-12-22T03:56:38;15.47;;;2.83;;
16892;SDS011;8563;52.242;9.098;2023-12-22T03:59:10;10.23;;;2.20;;
16892;SDS011;8563;52.242;9.098;2023-12-22T04:01:43;16.30;;;2.50;;
16892;SDS011;8563;52.242;9.098;2023-12-22T04:04:16;9.13;;;2.57;;
16892;SDS011;8563;52.242;9.098;2023-12-22T04:06:48;12.43;;;2.53;;
16892;SDS011;8563;52.242;9.098;2023-12-22T04:09:20;11.73;;;2.67;;
16892;SDS011;8563;52.242;9.098;2023-12-22T04:11:54;12.67;;;2.50;;
16892;SDS011;8563;52.242;9.098;2023-12-22T04:14:26;15.20;;;2.90;;
16892;SDS011;8563;52.242;9.098;2023-12-22T04:16:59;10.73;;;2.60;;
16892;SDS011;8563;52.242;9.098;2023-12-22T04:19:31;11.43;;;2.80;;
16892;SDS011;8563;52.242;9.098;2023-12-22T04:22:03;12.47;;;2.50;;
16892;SDS011;8563;52.242;9.098;2023-12-22T04:24:36;11.60;;;2.10;;
16892;SDS011;8563;52.242;9.098;2023-12-22T04:27:10;9.00;;;2.07;;
16892;SDS011;8563;52.242;9.098;2023-12-22T04:29:42;13.37;;;3.00;;
16892;SDS011;8563;52.242;9.098;2023-12-22T04:32:15;10.53;;;2.60;;
16892;SDS011;8563;52.242;9.098;2023-12-22T04:34:47;13.93;;;2.63;;
16892;SDS011;8563;52.242;9.098;2023-12-22T04:37:20;13.87;;;2.83;;
16892;SDS011;8563;52.242;9.098;2023-12-22T04:39:52;15.17;;;3.20;;
16892;SDS011;8563;52.242;9.098;2023-12-22T04:42:26;13.47;;;2.80;;
16892;SDS011;8563;52.242;9.098;2023-12-22T04:44:58;12.43;;;3.00;;
16892;SDS011;8563;52.242;9.098;2023-12-22T04:47:31;15.20;;;2.73;;
16892;SDS011;8563;52.242;9.098;2023-12-22T04:50:03;9.30;;;2.53;;
16892;SDS011;8563;52.242;9.098;2023-12-22T04:52:36;14.23;;;2.63;;
16892;SDS011;8563;52.242;9.098;2023-12-22T04:55:08;10.17;;;2.30;;
16892;SDS011;8563;52.242;9.098;2023-12-22T04:57:42;11.90;;;1.87;;
16892;SDS011;8563;52.242;9.098;2023-12-22T05:00:15;12.47;;;2.57;;
16892;SDS011;8563;52.242;9.098;2023-12-22T05:02:47;10.63;;;2.27;;
16892;SDS011;8563;52.242;9.098;2023-12-22T05:05:19;14.37;;;2.57;;
16892;SDS011;8563;52.242;9.098;2023-12-22T05:07:52;18.47;;;2.73;;
16892;SDS011;8563;52.242;9.098;2023-12-22T05:10:24;9.37;;;2.40;;
16892;SDS011;8563;52.242;9.098;2023-12-22T05:12:58;14.17;;;2.80;;
16892;SDS011;8563;52.242;9.098;2023-12-22T05:15:30;10.73;;;2.60;;
16892;SDS011;8563;52.242;9.098;2023-12-22T05:18:03;15.00;;;2.80;;
16892;SDS011;8563;52.242;9.098;2023-12-22T05:20:35;8.53;;;2.20;;
16892;SDS011;8563;52.242;9.098;2023-12-22T05:23:08;14.77;;;3.27;;
16892;SDS011;8563;52.242;9.098;2023-12-22T05:25:41;9.70;;;2.27;;
16892;SDS011;8563;52.242;9.098;2023-12-22T05:28:14;15.03;;;2.70;;
16892;SDS011;8563;52.242;9.098;2023-12-22T05:30:47;11.60;;;2.23;;
16892;SDS011;8563;52.242;9.098;2023-12-22T05:33:19;12.57;;;2.27;;
16892;SDS011;8563;52.242;9.098;2023-12-22T05:35:51;14.70;;;3.67;;
16892;SDS011;8563;52.242;9.098;2023-12-22T05:38:24;13.93;;;2.67;;
16892;SDS011;8563;52.242;9.098;2023-12-22T05:40:56;10.43;;;2.33;;
16892;SDS011;8563;52.242;9.098;2023-12-22T05:43:30;12.67;;;2.50;;
16892;SDS011;8563;52.242;9.098;2023-12-22T05:46:03;11.93;;;2.60;;
16892;SDS011;8563;52.242;9.098;2023-12-22T05:48:35;12.07;;;2.37;;
16892;SDS011;8563;52.242;9.098;2023-12-22T05:51:08;10.97;;;2.10;;
16892;SDS011;8563;52.242;9.098;2023-12-22T05:53:43;11.53;;;2.23;;
16892;SDS011;8563;52.242;9.098;2023-12-22T05:56:18;10.80;;;2.10;;
16892;SDS011;8563;52.242;9.098;2023-12-22T05:58:52;14.33;;;2.63;;
16892;SDS011;8563;52.242;9.098;2023-12-22T06:01:25;11.13;;;1.93;;
16892;SDS011;8563;52.242;9.098;2023-12-22T06:03:57;9.30;;;2.23;;
16892;SDS011;8563;52.242;9.098;2023-12-22T06:06:29;11.80;;;1.90;;
16892;SDS011;8563;52.242;9.098;2023-12-22T06:09:02;13.40;;;2.53;;
16892;SDS011;8563;52.242;9.098;2023-12-22T06:11:34;13.37;;;2.13;;
16892;SDS011;8563;52.242;9.098;2023-12-22T06:14:08;10.90;;;2.23;;
16892;SDS011;8563;52.242;9.098;2023-12-22T06:16:40;7.23;;;1.40;;
16892;SDS011;8563;52.242;9.098;2023-12-22T06:19:13;7.30;;;1.50;;
16892;SDS011;8563;52.242;9.098;2023-12-22T06:21:46;6.93;;;1.60;;
16892;SDS011;8563;52.242;9.098;2023-12-22T06:24:19;9.13;;;2.13;;
16892;SDS011;8563;52.242;9.098;2023-12-22T06:26:51;7.17;;;1.70;;
16892;SDS011;8563;52.242;9.098;2023-12-22T06:29:25;7.43;;;1.93;;
16892;SDS011;8563;52.242;9.098;2023-12-22T06:31:58;12.10;;;2.30;;
16892;SDS011;8563;52.242;9.098;2023-12-22T06:34:30;9.70;;;1.87;;
16892;SDS011;8563;52.242;9.098;2023-12-22T06:37:02;7.00;;;1.80;;
16892;SDS011;8563;52.242;9.098;2023-12-22T06:39:38;10.40;;;1.90;;
16892;SDS011;8563;52.242;9.098;2023-12-22T06:42:10;13.40;;;2.83;;
16892;SDS011;8563;52.242;9.098;2023-12-22T06:44:45;9.53;;;2.10;;
16892;SDS011;8563;52.242;9.098;2023-12-22T06:47:17;10.00;;;2.03;;
16892;SDS011;8563;52.242;9.098;2023-12-22T06:49:50;10.43;;;2.33;;
16892;SDS011;8563;52.242;9.098;2023-12-22T06:52:23;14.57;;;2.50;;
16892;SDS011;8563;52.242;9.098;2023-12-22T06:54:55;14.03;;;2.40;;
16892;SDS011;8563;52.242;9.098;2023-12-22T06:57:27;12.40;;;2.80;;
16892;SDS011;8563;52.242;9.098;2023-12-22T07:00:01;13.50;;;2.40;;
16892;SDS011;8563;52.242;9.098;2023-12-22T07:02:34;14.97;;;2.43;;
16892;SDS011;8563;52.242;9.098;2023-12-22T07:07:54;14.13;;;2.63;;
16892;SDS011;8563;52.242;9.098;2023-12-22T07:10:26;14.13;;;3.00;;
16892;SDS011;8563;52.242;9.098;2023-12-22T07:12:58;11.40;;;2.73;;
16892;SDS011;8563;52.242;9.098;2023-12-22T07:15:32;12.07;;;2.20;;
16892;SDS011;8563;52.242;9.098;2023-12-22T07:18:05;13.37;;;3.33;;
16892;SDS011;8563;52.242;9.098;2023-12-22T07:20:37;17.07;;;3.23;;
16892;SDS011;8563;52.242;9.098;2023-12-22T07:23:09;11.27;;;2.57;;
16892;SDS011;8563;52.242;9.098;2023-12-22T07:25:42;14.17;;;2.47;;
16892;SDS011;8563;52.242;9.098;2023-12-22T07:28:14;14.00;;;3.07;;
16892;SDS011;8563;52.242;9.098;2023-12-22T07:30:48;15.93;;;2.97;;
16892;SDS011;8563;52.242;9.098;2023-12-22T07:33:21;12.33;;;2.63;;
16892;SDS011;8563;52.242;9.098;2023-12-22T07:35:53;13.07;;;2.43;;
16892;SDS011;8563;52.242;9.098;2023-12-22T07:38:26;12.20;;;2.90;;
16892;SDS011;8563;52.242;9.098;2023-12-22T07:40:58;11.70;;;2.43;;
16892;SDS011;8563;52.242;9.098;2023-12-22T07:43:31;15.90;;;2.93;;
16892;SDS011;8563;52.242;9.098;2023-12-22T07:46:05;13.20;;;2.60;;
16892;SDS011;8563;52.242;9.098;2023-12-22T07:48:39;12.00;;;2.77;;
16892;SDS011;8563;52.242;9.098;2023-12-22T07:51:11;16.70;;;2.87;;
16892;SDS011;8563;52.242;9.098;2023-12-22T07:53:44;17.83;;;3.90;;
16892;SDS011;8563;52.242;9.098;2023-12-22T07:56:16;12.20;;;2.43;;
16892;SDS011;8563;52.242;9.098;2023-12-22T07:58:49;12.23;;;3.03;;
16892;SDS011;8563;52.242;9.098;2023-12-22T08:01:23;13.43;;;3.23;;
16892;SDS011;8563;52.242;9.098;2023-12-22T08:03:55;12.27;;;3.00;;
16892;SDS011;8563;52.242;9.098;2023-12-22T08:06:27;15.93;;;2.67;;
16892;SDS011;8563;52.242;9.098;2023-12-22T08:09:00;13.23;;;2.93;;
16892;SDS011;8563;52.242;9.098;2023-12-22T08:11:32;7.33;;;2.87;;
16892;SDS011;8563;52.242;9.098;2023-12-22T08:14:05;14.10;;;3.20;;
16892;SDS011;8563;52.242;9.098;2023-12-22T08:16:38;12.07;;;2.63;;
16892;SDS011;8563;52.242;9.098;2023-12-22T08:19:11;12.23;;;2.63;;
16892;SDS011;8563;52.242;9.098;2023-12-22T08:21:43;15.77;;;3.03;;
16892;SDS011;8563;52.242;9.098;2023-12-22T08:24:16;9.33;;;2.10;;
16892;SDS011;8563;52.242;9.098;2023-12-22T08:26:48;12.50;;;2.90;;
16892;SDS011;8563;52.242;9.098;2023-12-22T08:29:21;14.43;;;2.53;;
16892;SDS011;8563;52.242;9.098;2023-12-22T08:31:54;13.47;;;2.60;;
16892;SDS011;8563;52.242;9.098;2023-12-22T08:34:26;14.13;;;2.67;;
16892;SDS011;8563;52.242;9.098;2023-12-22T08:36:59;12.97;;;3.07;;
16892;SDS011;8563;52.242;9.098;2023-12-22T08:39:31;12.77;;;2.57;;
16892;SDS011;8563;52.242;9.098;2023-12-22T08:42:04;10.73;;;2.47;;
16892;SDS011;8563;52.242;9.098;2023-12-22T08:44:36;14.83;;;2.63;;
16892;SDS011;8563;52.242;9.098;2023-12-22T08:47:10;16.17;;;3.03;;
16892;SDS011;8563;52.242;9.098;2023-12-22T08:49:42;11.87;;;2.83;;
16892;SDS011;8563;52.242;9.098;2023-12-22T08:52:15;14.43;;;3.13;;
16892;SDS011;8563;52.242;9.098;2023-12-22T08:54:47;18.57;;;3.00;;
16892;SDS011;8563;52.242;9.098;2023-12-22T08:57:19;9.47;;;2.23;;
16892;SDS011;8563;52.242;9.098;2023-12-22T08:59:52;8.87;;;2.40;;
16892;SDS011;8563;52.242;9.098;2023-12-22T09:02:26;15.47;;;2.83;;
16892;SDS011;8563;52.242;9.098;2023-12-22T09:04:58;14.57;;;3.00;;
16892;SDS011;8563;52.242;9.098;2023-12-22T09:07:31;13.40;;;2.50;;
16892;SDS011;8563;52.242;9.098;2023-12-22T09:10:03;11.23;;;2.80;;
16892;SDS011;8563;52.242;9.098;2023-12-22T09:12:36;12.70;;;3.20;;
16892;SDS011;8563;52.242;9.098;2023-12-22T09:15:08;17.03;;;3.40;;
16892;SDS011;8563;52.242;9.098;2023-12-22T09:17:42;14.97;;;3.07;;
16892;SDS011;8563;52.242;9.098;2023-12-22T09:20:15;10.23;;;2.57;;
16892;SDS011;8563;52.242;9.098;2023-12-22T09:22:47;10.70;;;2.40;;
16892;SDS011;8563;52.242;9.098;2023-12-22T09:25:19;15.20;;;2.80;;
16892;SDS011;8563;52.242;9.098;2023-12-22T09:27:52;14.83;;;3.10;;
16892;SDS011;8563;52.242;9.098;2023-12-22T09:30:24;13.63;;;3.43;;
16892;SDS011;8563;52.242;9.098;2023-12-22T09:32:58;12.87;;;2.40;;
16892;SDS011;8563;52.242;9.098;2023-12-22T09:35:32;14.40;;;2.87;;
16892;SDS011;8563;52.242;9.098;2023-12-22T09:38:04;11.37;;;2.50;;
16892;SDS011;8563;52.242;9.098;2023-12-22T09:40:36;19.67;;;2.90;;
16892;SDS011;8563;52.242;9.098;2023-12-22T09:43:09;12.77;;;2.97;;
16892;SDS011;8563;52.242;9.098;2023-12-22T09:45:45;20.73;;;3.63;;
16892;SDS011;8563;52.242;9.098;2023-12-22T09:48:19;13.03;;;2.50;;
16892;SDS011;8563;52.242;9.098;2023-12-22T09:50:57;11.70;;;3.00;;
16892;SDS011;8563;52.242;9.098;2023-12-22T09:53:32;17.33;;;2.97;;
16892;SDS011;8563;52.242;9.098;2023-12-22T09:56:05;12.27;;;2.97;;
16892;SDS011;8563;52.242;9.098;2023-12-22T09:58:38;15.27;;;3.07;;
16892;SDS011;8563;52.242;9.098;2023-12-22T10:01:11;11.13;;;2.73;;
16892;SDS011;8563;52.242;9.098;2023-12-22T10:03:45;12.03;;;3.13;;
16892;SDS011;8563;52.242;9.098;2023-12-22T10:06:17;14.07;;;2.60;;
16892;SDS011;8563;52.242;9.098;2023-12-22T10:08:50;11.70;;;2.63;;
16892;SDS011;8563;52.242;9.098;2023-12-22T10:11:22;15.30;;;3.10;;
16892;SDS011;8563;52.242;9.098;2023-12-22T10:13:55;15.97;;;3.13;;
16892;SDS011;8563;52.242;9.098;2023-12-22T10:16:28;14.53;;;2.80;;
16892;SDS011;8563;52.242;9.098;2023-12-22T10:19:02;13.57;;;2.60;;
16892;SDS011;8563;52.242;9.098;2023-12-22T10:21:35;17.23;;;3.07;;
16892;SDS011;8563;52.242;9.098;2023-12-22T10:24:07;13.47;;;3.33;;
16892;SDS011;8563;52.242;9.098;2023-12-22T10:26:40;11.67;;;2.63;;
16892;SDS011;8563;52.242;9.098;2023-12-22T10:29:12;12.47;;;2.47;;
16892;SDS011;8563;52.242;9.098;2023-12-22T10:31:44;14.97;;;3.00;;
16892;SDS011;8563;52.242;9.098;2023-12-22T10:34:18;11.87;;;2.90;;
16892;SDS011;8563;52.242;9.098;2023-12-22T10:36:51;10.33;;;2.50;;
16892;SDS011;8563;52.242;9.098;2023-12-22T10:39:23;16.00;;;3.53;;
16892;SDS011;8563;52.242;9.098;2023-12-22T10:41:59;14.80;;;2.20;;
16892;SDS011;8563;52.242;9.098;2023-12-22T10:44:31;9.23;;;1.77;;
16892;SDS011;8563;52.242;9.098;2023-12-22T10:47:04;11.10;;;2.80;;
16892;SDS011;8563;52.242;9.098;2023-12-22T10:49:38;9.37;;;2.83;;
16892;SDS011;8563;52.242;9.098;2023-12-22T10:52:14;9.47;;;1.70;;
16892;SDS011;8563;52.242;9.098;2023-12-22T10:54:48;10.87;;;2.20;;
16892;SDS011;8563;52.242;9.098;2023-12-22T10:57:20;10.77;;;2.07;;
16892;SDS011;8563;52.242;9.098;2023-12-22T10:59:53;9.00;;;2.10;;
16892;SDS011;8563;52.242;9.098;2023-12-22T11:02:28;13.00;;;2.27;;
16892;SDS011;8563;52.242;9.098;2023-12-22T11:05:04;15.20;;;2.73;;
16892;SDS011;8563;52.242;9.098;2023-12-22T11:07:41;5.63;;;1.60;;
16892;SDS011;8563;52.242;9.098;2023-12-22T11:10:18;7.67;;;1.80;;
16892;SDS011;8563;52.242;9.098;2023-12-22T11:12:51;7.30;;;1.47;;
16892;SDS011;8563;52.242;9.098;2023-12-22T11:15:24;8.83;;;1.57;;
16892;SDS011;8563;52.242;9.098;2023-12-22T11:17:57;9.17;;;1.57;;
16892;SDS011;8563;52.242;9.098;2023-12-22T11:20:31;7.23;;;1.60;;
16892;SDS011;8563;52.242;9.098;2023-12-22T11:23:04;8.03;;;1.57;;
16892;SDS011;8563;52.242;9.098;2023-12-22T11:25:37;7.10;;;1.60;;
16892;SDS011;8563;52.242;9.098;2023-12-22T11:28:10;6.23;;;1.43;;
16892;SDS011;8563;52.242;9.098;2023-12-22T11:30:43;4.07;;;1.27;;
16892;SDS011;8563;52.242;9.098;2023-12-22T11:33:16;6.80;;;1.50;;
16892;SDS011;8563;52.242;9.098;2023-12-22T11:35:51;8.23;;;1.63;;
16892;SDS011;8563;52.242;9.098;2023-12-22T11:38:26;4.37;;;1.07;;
16892;SDS011;8563;52.242;9.098;2023-12-22T11:40:58;6.47;;;1.10;;
16892;SDS011;8563;52.242;9.098;2023-12-22T11:43:32;3.97;;;0.90;;
16892;SDS011;8563;52.242;9.098;2023-12-22T11:46:06;5.63;;;1.23;;
16892;SDS011;8563;52.242;9.098;2023-12-22T11:48:38;5.20;;;1.03;;
16892;SDS011;8563;52.242;9.098;2023-12-22T11:51:19;5.80;;;1.40;;
16892;SDS011;8563;52.242;9.098;2023-12-22T11:53:52;5.90;;;1.47;;
16892;SDS011;8563;52.242;9.098;2023-12-22T11:56:24;6.33;;;1.80;;
16892;SDS011;8563;52.242;9.098;2023-12-22T11:58:57;5.13;;;1.40;;
16892;SDS011;8563;52.242;9.098;2023-12-22T12:01:34;5.90;;;1.40;;
16892;SDS011;8563;52.242;9.098;2023-12-22T12:04:10;6.87;;;1.40;;
16892;SDS011;8563;52.242;9.098;2023-12-22T12:06:44;7.23;;;1.50;;
16892;SDS011;8563;52.242;9.098;2023-12-22T12:09:16;8.03;;;1.67;;
16892;SDS011;8563;52.242;9.098;2023-12-22T12:12:09;3.33;;;0.90;;
16892;SDS011;8563;52.242;9.098;2023-12-22T12:14:41;6.23;;;1.23;;
16892;SDS011;8563;52.242;9.098;2023-12-22T12:17:15;5.03;;;1.27;;
16892;SDS011;8563;52.242;9.098;2023-12-22T12:19:49;4.93;;;1.30;;
16892;SDS011;8563;52.242;9.098;2023-12-22T12:22:26;6.00;;;1.13;;
16892;SDS011;8563;52.242;9.098;2023-12-22T12:25:00;7.23;;;1.20;;
16892;SDS011;8563;52.242;9.098;2023-12-22T12:27:32;5.43;;;1.63;;
16892;SDS011;8563;52.242;9.098;2023-12-22T12:30:08;4.83;;;1.33;;
16892;SDS011;8563;52.242;9.098;2023-12-22T12:32:43;4.17;;;1.50;;
16892;SDS011;8563;52.242;9.098;2023-12-22T12:35:16;4.97;;;1.00;;
16892;SDS011;8563;52.242;9.098;2023-12-22T12:37:52;5.57;;;1.30;;
16892;SDS011;8563;52.242;9.098;2023-12-22T12:40:25;5.00;;;1.37;;
16892;SDS011;8563;52.242;9.098;2023-12-22T12:42:59;5.97;;;1.30;;
16892;SDS011;8563;52.242;9.098;2023-12-22T12:45:32;6.63;;;1.10;;
16892;SDS011;8563;52.242;9.098;2023-12-22T12:48:05;10.17;;;1.67;;
16892;SDS011;8563;52.242;9.098;2023-12-22T12:50:37;5.43;;;1.53;;
16892;SDS011;8563;52.242;9.098;2023-12-22T12:53:11;5.63;;;1.50;;
16892;SDS011;8563;52.242;9.098;2023-12-22T12:55:43;6.33;;;1.30;;
16892;SDS011;8563;52.242;9.098;2023-12-22T12:58:16;4.37;;;1.07;;
16892;SDS011;8563;52.242;9.098;2023-12-22T13:00:48;4.13;;;1.00;;
16892;SDS011;8563;52.242;9.098;2023-12-22T13:03:23;7.00;;;1.50;;
16892;SDS011;8563;52.242;9.098;2023-12-22T13:06:05;6.47;;;1.20;;
16892;SDS011;8563;52.242;9.098;2023-12-22T13:08:39;7.27;;;1.20;;
16892;SDS011;8563;52.242;9.098;2023-12-22T13:11:20;3.93;;;1.07;;
16892;SDS011;8563;52.242;9.098;2023-12-22T13:13:53;4.23;;;1.13;;
16892;SDS011;8563;52.242;9.098;2023-12-22T13:16:25;3.50;;;0.97;;
16892;SDS011;8563;52.242;9.098;2023-12-22T13:19:00;4.33;;;1.00;;
16892;SDS011;8563;52.242;9.098;2023-12-22T13:21:32;4.63;;;1.30;;
16892;SDS011;8563;52.242;9.098;2023-12-22T13:24:09;10.27;;;4.50;;
16892;SDS011;8563;52.242;9.098;2023-12-22T13:26:42;6.43;;;1.33;;
16892;SDS011;8563;52.242;9.098;2023-12-22T13:29:14;5.23;;;1.17;;
16892;SDS011;8563;52.242;9.098;2023-12-22T13:31:47;12.50;;;7.70;;
16892;SDS011;8563;52.242;9.098;2023-12-22T13:34:19;8.43;;;3.10;;
16892;SDS011;8563;52.242;9.098;2023-12-22T13:36:52;8.10;;;3.60;;
16892;SDS011;8563;52.242;9.098;2023-12-22T13:39:27;5.70;;;2.37;;
16892;SDS011;8563;52.242;9.098;2023-12-22T13:42:00;7.40;;;2.60;;
16892;SDS011;8563;52.242;9.098;2023-12-22T13:44:32;10.27;;;4.17;;
16892;SDS011;8563;52.242;9.098;2023-12-22T13:47:05;6.73;;;1.40;;
16892;SDS011;8563;52.242;9.098;2023-12-22T13:49:38;6.50;;;3.03;;
16892;SDS011;8563;52.242;9.098;2023-12-22T13:52:27;11.20;;;6.77;;
16892;SDS011;8563;52.242;9.098;2023-12-22T13:55:06;6.77;;;2.40;;
16892;SDS011;8563;52.242;9.098;2023-12-22T13:57:41;6.87;;;1.73;;
16892;SDS011;8563;52.242;9.098;2023-12-22T14:00:27;8.00;;;4.60;;
16892;SDS011;8563;52.242;9.098;2023-12-22T14:03:00;4.97;;;2.03;;
16892;SDS011;8563;52.242;9.098;2023-12-22T14:05:33;4.20;;;1.27;;
16892;SDS011;8563;52.242;9.098;2023-12-22T14:08:06;3.97;;;0.97;;
16892;SDS011;8563;52.242;9.098;2023-12-22T14:10:45;7.47;;;1.47;;
16892;SDS011;8563;52.242;9.098;2023-12-22T14:13:19;6.43;;;1.33;;
16892;SDS011;8563;52.242;9.098;2023-12-22T14:15:51;6.57;;;1.30;;
16892;SDS011;8563;52.242;9.098;2023-12-22T14:18:26;3.60;;;1.03;;
16892;SDS011;8563;52.242;9.098;2023-12-22T14:20:59;4.23;;;1.03;;
16892;SDS011;8563;52.242;9.098;2023-12-22T14:23:31;4.63;;;1.50;;
16892;SDS011;8563;52.242;9.098;2023-12-22T14:26:05;2.33;;;0.90;;
16892;SDS011;8563;52.242;9.098;2023-12-22T14:28:38;5.53;;;1.20;;
16892;SDS011;8563;52.242;9.098;2023-12-22T14:31:10;7.13;;;1.20;;
16892;SDS011;8563;52.242;9.098;2023-12-22T14:33:43;9.10;;;1.40;;
16892;SDS011;8563;52.242;9.098;2023-12-22T14:36:15;5.00;;;1.37;;
16892;SDS011;8563;52.242;9.098;2023-12-22T14:38:48;4.53;;;1.00;;
16892;SDS011;8563;52.242;9.098;2023-12-22T14:41:22;5.43;;;1.80;;
16892;SDS011;8563;52.242;9.098;2023-12-22T14:43:55;5.03;;;1.03;;
16892;SDS011;8563;52.242;9.098;2023-12-22T14:46:27;2.50;;;1.00;;
16892;SDS011;8563;52.242;9.098;2023-12-22T14:49:00;3.23;;;1.10;;
16892;SDS011;8563;52.242;9.098;2023-12-22T14:51:34;3.57;;;0.90;;
16892;SDS011;8563;52.242;9.098;2023-12-22T14:54:07;4.50;;;1.10;;
16892;SDS011;8563;52.242;9.098;2023-12-22T14:56:42;4.73;;;1.20;;
16892;SDS011;8563;52.242;9.098;2023-12-22T14:59:14;4.80;;;0.80;;
16892;SDS011;8563;52.242;9.098;2023-12-22T15:01:47;2.07;;;0.70;;
16892;SDS011;8563;52.242;9.098;2023-12-22T15:04:19;3.80;;;0.80;;
16892;SDS011;8563;52.242;9.098;2023-12-22T15:10:32;2.03;;;0.77;;
16892;SDS011;8563;52.242;9.098;2023-12-22T15:13:06;3.90;;;0.50;;
16892;SDS011;8563;52.242;9.098;2023-12-22T15:15:40;5.23;;;0.80;;
16892;SDS011;8563;52.242;9.098;2023-12-22T15:18:12;4.30;;;0.80;;
16892;SDS011;8563;52.242;9.098;2023-12-22T15:20:45;2.73;;;1.27;;
16892;SDS011;8563;52.242;9.098;2023-12-22T15:23:22;3.73;;;0.87;;
16892;SDS011;8563;52.242;9.098;2023-12-22T15:25:54;3.77;;;1.03;;
16892;SDS011;8563;52.242;9.098;2023-12-22T15:28:28;2.07;;;0.70;;
16892;SDS011;8563;52.242;9.098;2023-12-22T15:31:01;1.40;;;0.50;;
16892;SDS011;8563;52.242;9.098;2023-12-22T15:33:34;2.57;;;0.60;;
16892;SDS011;8563;52.242;9.098;2023-12-22T15:36:06;4.60;;;2.73;;